sensor_id;sensor_type;location;lat;lon;timestamp;P1;durP1;ratioP1;P2;durP2;ratioP2
20935;SDS011;10627;54.514;18.532;2022-09-21T00:03:40;4.20;;;1.43;;
20935;SDS011;10627;54.514;18.532;2022-09-21T00:08:43;3.17;;;1.80;;
20935;SDS011;10627;54.514;18.532;2022-09-21T00:13:45;9.97;;;1.97;;
20935;SDS011;10627;54.514;18.532;2022-09-21T00:18:46;4.40;;;1.90;;
20935;SDS011;10627;54.514;18.532;2022-09-21T00:23:48;5.53;;;2.30;;
20935;SDS011;10627;54.514;18.532;2022-09-21T00:28:56;3.40;;;1.70;;
20935;SDS011;10627;54.514;18.532;2022-09-21T00:33:58;1.93;;;1.40;;
20935;SDS011;10627;54.514;18.532;2022-09-21T00:39:00;3.43;;;1.43;;
20935;SDS011;10627;54.514;18.532;2022-09-21T00:49:21;5.80;;;1.53;;
20935;SDS011;10627;54.514;18.532;2022-09-21T00:54:24;4.57;;;1.93;;
20935;SDS011;10627;54.514;18.532;2022-09-21T00:59:33;3.23;;;1.07;;
20935;SDS011;10627;54.514;18.532;2022-09-21T01:04:36;9.20;;;0.90;;
20935;SDS011;10627;54.514;18.532;2022-09-21T01:09:39;2.67;;;1.20;;
20935;SDS011;10627;54.514;18.532;2022-09-21T01:25:12;2.80;;;0.80;;
20935;SDS011;10627;54.514;18.532;2022-09-21T01:30:23;1.87;;;0.80;;
20935;SDS011;10627;54.514;18.532;2022-09-21T01:35:32;2.87;;;1.63;;
20935;SDS011;10627;54.514;18.532;2022-09-21T01:40:37;1.97;;;1.53;;
20935;SDS011;10627;54.514;18.532;2022-09-21T01:45:46;3.80;;;1.13;;
20935;SDS011;10627;54.514;18.532;2022-09-21T01:50:52;2.60;;;1.07;;
20935;SDS011;10627;54.514;18.532;2022-09-21T01:55:56;4.13;;;1.17;;
20935;SDS011;10627;54.514;18.532;2022-09-21T02:00:58;2.87;;;1.20;;
20935;SDS011;10627;54.514;18.532;2022-09-21T02:05:59;4.57;;;1.43;;
20935;SDS011;10627;54.514;18.532;2022-09-21T02:11:01;3.70;;;1.37;;
20935;SDS011;10627;54.514;18.532;2022-09-21T02:21:44;1.63;;;1.10;;
20935;SDS011;10627;54.514;18.532;2022-09-21T02:26:39;4.50;;;1.27;;
20935;SDS011;10627;54.514;18.532;2022-09-21T02:47:17;1.70;;;1.03;;
20935;SDS011;10627;54.514;18.532;2022-09-21T02:52:21;2.33;;;1.10;;
20935;SDS011;10627;54.514;18.532;2022-09-21T02:57:24;2.70;;;0.90;;
20935;SDS011;10627;54.514;18.532;2022-09-21T03:02:34;1.20;;;0.90;;
20935;SDS011;10627;54.514;18.532;2022-09-21T03:07:36;1.30;;;1.00;;
20935;SDS011;10627;54.514;18.532;2022-09-21T03:12:37;3.07;;;0.90;;
20935;SDS011;10627;54.514;18.532;2022-09-21T03:17:38;3.73;;;1.40;;
20935;SDS011;10627;54.514;18.532;2022-09-21T03:22:39;2.07;;;1.10;;
20935;SDS011;10627;54.514;18.532;2022-09-21T03:27:40;4.03;;;0.97;;
20935;SDS011;10627;54.514;18.532;2022-09-21T03:32:42;5.13;;;1.83;;
20935;SDS011;10627;54.514;18.532;2022-09-21T03:37:42;2.60;;;1.13;;
20935;SDS011;10627;54.514;18.532;2022-09-21T03:42:46;1.57;;;0.90;;
20935;SDS011;10627;54.514;18.532;2022-09-21T03:47:47;0.87;;;0.80;;
20935;SDS011;10627;54.514;18.532;2022-09-21T03:52:48;2.03;;;1.10;;
20935;SDS011;10627;54.514;18.532;2022-09-21T03:57:48;9.23;;;1.50;;
20935;SDS011;10627;54.514;18.532;2022-09-21T04:02:49;5.13;;;1.10;;
20935;SDS011;10627;54.514;18.532;2022-09-21T04:07:50;3.90;;;1.03;;
20935;SDS011;10627;54.514;18.532;2022-09-21T04:12:51;1.77;;;1.10;;
20935;SDS011;10627;54.514;18.532;2022-09-21T04:17:57;2.97;;;1.07;;
20935;SDS011;10627;54.514;18.532;2022-09-21T04:22:58;1.67;;;1.07;;
20935;SDS011;10627;54.514;18.532;2022-09-21T04:27:59;4.57;;;1.40;;
20935;SDS011;10627;54.514;18.532;2022-09-21T04:33:00;4.00;;;1.50;;
20935;SDS011;10627;54.514;18.532;2022-09-21T04:38:00;5.53;;;1.37;;
20935;SDS011;10627;54.514;18.532;2022-09-21T04:43:02;4.50;;;1.37;;
20935;SDS011;10627;54.514;18.532;2022-09-21T04:48:03;4.20;;;1.43;;
20935;SDS011;10627;54.514;18.532;2022-09-21T04:53:04;7.60;;;1.10;;
20935;SDS011;10627;54.514;18.532;2022-09-21T04:58:05;5.40;;;1.30;;
20935;SDS011;10627;54.514;18.532;2022-09-21T05:03:05;4.93;;;1.40;;
20935;SDS011;10627;54.514;18.532;2022-09-21T05:08:06;6.60;;;1.50;;
20935;SDS011;10627;54.514;18.532;2022-09-21T05:13:06;4.80;;;1.33;;
20935;SDS011;10627;54.514;18.532;2022-09-21T05:18:08;4.10;;;1.30;;
20935;SDS011;10627;54.514;18.532;2022-09-21T05:23:08;3.53;;;1.30;;
20935;SDS011;10627;54.514;18.532;2022-09-21T05:28:09;8.33;;;1.37;;
20935;SDS011;10627;54.514;18.532;2022-09-21T05:33:12;5.13;;;1.30;;
20935;SDS011;10627;54.514;18.532;2022-09-21T05:38:18;4.83;;;1.40;;
20935;SDS011;10627;54.514;18.532;2022-09-21T05:43:19;3.90;;;1.37;;
20935;SDS011;10627;54.514;18.532;2022-09-21T05:48:21;2.80;;;1.40;;
20935;SDS011;10627;54.514;18.532;2022-09-21T05:58:31;4.00;;;1.70;;
20935;SDS011;10627;54.514;18.532;2022-09-21T06:03:34;1.97;;;1.00;;
20935;SDS011;10627;54.514;18.532;2022-09-21T06:08:35;3.40;;;0.80;;
20935;SDS011;10627;54.514;18.532;2022-09-21T06:13:36;2.50;;;0.93;;
20935;SDS011;10627;54.514;18.532;2022-09-21T06:18:37;5.03;;;1.53;;
20935;SDS011;10627;54.514;18.532;2022-09-21T06:23:39;8.60;;;2.27;;
20935;SDS011;10627;54.514;18.532;2022-09-21T06:28:39;2.77;;;1.30;;
20935;SDS011;10627;54.514;18.532;2022-09-21T06:33:40;3.30;;;1.10;;
20935;SDS011;10627;54.514;18.532;2022-09-21T06:38:41;3.25;;;1.25;;
20935;SDS011;10627;54.514;18.532;2022-09-21T06:43:41;3.83;;;1.58;;
20935;SDS011;10627;54.514;18.532;2022-09-21T06:48:42;5.53;;;1.30;;
20935;SDS011;10627;54.514;18.532;2022-09-21T06:53:44;5.07;;;1.83;;
20935;SDS011;10627;54.514;18.532;2022-09-21T06:58:45;1.75;;;1.40;;
20935;SDS011;10627;54.514;18.532;2022-09-21T07:03:50;2.97;;;1.55;;
20935;SDS011;10627;54.514;18.532;2022-09-21T07:08:51;2.67;;;1.40;;
20935;SDS011;10627;54.514;18.532;2022-09-21T07:13:52;2.25;;;1.23;;
20935;SDS011;10627;54.514;18.532;2022-09-21T07:18:53;3.95;;;2.33;;
20935;SDS011;10627;54.514;18.532;2022-09-21T07:23:54;4.30;;;1.70;;
20935;SDS011;10627;54.514;18.532;2022-09-21T07:28:55;3.65;;;1.25;;
20935;SDS011;10627;54.514;18.532;2022-09-21T07:33:56;3.65;;;3.08;;
20935;SDS011;10627;54.514;18.532;2022-09-21T07:38:58;3.05;;;1.55;;
20935;SDS011;10627;54.514;18.532;2022-09-21T07:43:58;3.00;;;1.20;;
20935;SDS011;10627;54.514;18.532;2022-09-21T07:48:59;2.80;;;1.15;;
20935;SDS011;10627;54.514;18.532;2022-09-21T07:54:00;1.50;;;1.10;;
20935;SDS011;10627;54.514;18.532;2022-09-21T07:59:01;1.15;;;0.60;;
20935;SDS011;10627;54.514;18.532;2022-09-21T08:04:09;1.85;;;0.77;;
20935;SDS011;10627;54.514;18.532;2022-09-21T08:09:10;1.08;;;0.50;;
20935;SDS011;10627;54.514;18.532;2022-09-21T08:14:11;1.13;;;0.60;;
20935;SDS011;10627;54.514;18.532;2022-09-21T08:19:18;1.17;;;0.80;;
20935;SDS011;10627;54.514;18.532;2022-09-21T08:24:19;0.77;;;0.73;;
20935;SDS011;10627;54.514;18.532;2022-09-21T08:29:20;0.45;;;0.45;;
20935;SDS011;10627;54.514;18.532;2022-09-21T08:34:21;3.78;;;1.45;;
20935;SDS011;10627;54.514;18.532;2022-09-21T08:39:23;1.23;;;0.60;;
20935;SDS011;10627;54.514;18.532;2022-09-21T08:44:25;7.38;;;0.70;;
20935;SDS011;10627;54.514;18.532;2022-09-21T08:49:38;1.77;;;0.70;;
20935;SDS011;10627;54.514;18.532;2022-09-21T08:59:42;7.80;;;0.40;;
20935;SDS011;10627;54.514;18.532;2022-09-21T09:20:56;5.20;;;0.77;;
20935;SDS011;10627;54.514;18.532;2022-09-21T09:26:00;5.45;;;0.50;;
20935;SDS011;10627;54.514;18.532;2022-09-21T09:36:26;1.50;;;0.65;;
20935;SDS011;10627;54.514;18.532;2022-09-21T09:41:34;0.85;;;0.70;;
20935;SDS011;10627;54.514;18.532;2022-09-21T09:52:05;1.17;;;0.52;;
20935;SDS011;10627;54.514;18.532;2022-09-21T09:57:08;2.78;;;1.35;;
20935;SDS011;10627;54.514;18.532;2022-09-21T10:07:17;2.80;;;0.98;;
20935;SDS011;10627;54.514;18.532;2022-09-21T10:12:22;4.95;;;1.10;;
20935;SDS011;10627;54.514;18.532;2022-09-21T10:17:24;1.48;;;0.80;;
20935;SDS011;10627;54.514;18.532;2022-09-21T10:22:25;5.53;;;0.80;;
20935;SDS011;10627;54.514;18.532;2022-09-21T10:27:28;2.28;;;0.75;;
20935;SDS011;10627;54.514;18.532;2022-09-21T10:32:33;3.67;;;0.70;;
20935;SDS011;10627;54.514;18.532;2022-09-21T10:38:08;4.95;;;0.90;;
20935;SDS011;10627;54.514;18.532;2022-09-21T10:43:21;5.30;;;1.20;;
20935;SDS011;10627;54.514;18.532;2022-09-21T10:48:29;4.13;;;0.80;;
20935;SDS011;10627;54.514;18.532;2022-09-21T10:53:30;3.20;;;0.82;;
20935;SDS011;10627;54.514;18.532;2022-09-21T10:58:32;2.53;;;0.80;;
20935;SDS011;10627;54.514;18.532;2022-09-21T11:08:50;1.83;;;0.80;;
20935;SDS011;10627;54.514;18.532;2022-09-21T11:13:59;1.90;;;0.75;;
20935;SDS011;10627;54.514;18.532;2022-09-21T11:20:04;4.43;;;1.10;;
20935;SDS011;10627;54.514;18.532;2022-09-21T11:30:00;2.17;;;0.80;;
20935;SDS011;10627;54.514;18.532;2022-09-21T11:51:15;1.23;;;0.63;;
20935;SDS011;10627;54.514;18.532;2022-09-21T11:56:24;0.60;;;0.52;;
20935;SDS011;10627;54.514;18.532;2022-09-21T12:11:47;3.45;;;0.80;;
20935;SDS011;10627;54.514;18.532;2022-09-21T12:17:03;2.83;;;0.57;;
20935;SDS011;10627;54.514;18.532;2022-09-21T12:22:16;6.40;;;0.70;;
20935;SDS011;10627;54.514;18.532;2022-09-21T12:27:35;5.30;;;0.90;;
20935;SDS011;10627;54.514;18.532;2022-09-21T12:48:33;2.63;;;0.95;;
20935;SDS011;10627;54.514;18.532;2022-09-21T12:53:41;1.02;;;0.70;;
20935;SDS011;10627;54.514;18.532;2022-09-21T12:58:59;4.45;;;1.20;;
20935;SDS011;10627;54.514;18.532;2022-09-21T13:09:53;2.65;;;0.75;;
20935;SDS011;10627;54.514;18.532;2022-09-21T13:14:57;2.95;;;0.90;;
20935;SDS011;10627;54.514;18.532;2022-09-21T13:20:15;2.35;;;1.15;;
20935;SDS011;10627;54.514;18.532;2022-09-21T13:25:18;1.88;;;0.90;;
20935;SDS011;10627;54.514;18.532;2022-09-21T13:30:35;3.35;;;1.10;;
20935;SDS011;10627;54.514;18.532;2022-09-21T13:40:57;2.58;;;1.00;;
20935;SDS011;10627;54.514;18.532;2022-09-21T13:51:56;4.35;;;0.98;;
20935;SDS011;10627;54.514;18.532;2022-09-21T14:02:21;1.85;;;0.70;;
20935;SDS011;10627;54.514;18.532;2022-09-21T14:07:26;1.48;;;0.80;;
20935;SDS011;10627;54.514;18.532;2022-09-21T14:12:31;1.58;;;1.02;;
20935;SDS011;10627;54.514;18.532;2022-09-21T14:17:36;3.08;;;1.00;;
20935;SDS011;10627;54.514;18.532;2022-09-21T14:23:41;5.72;;;0.95;;
20935;SDS011;10627;54.514;18.532;2022-09-21T14:28:31;2.08;;;1.17;;
20935;SDS011;10627;54.514;18.532;2022-09-21T14:33:43;4.57;;;1.00;;
20935;SDS011;10627;54.514;18.532;2022-09-21T14:38:50;1.13;;;0.73;;
20935;SDS011;10627;54.514;18.532;2022-09-21T14:43:53;2.72;;;0.80;;
20935;SDS011;10627;54.514;18.532;2022-09-21T14:54:06;5.10;;;1.25;;
20935;SDS011;10627;54.514;18.532;2022-09-21T15:15:33;3.78;;;1.08;;
20935;SDS011;10627;54.514;18.532;2022-09-21T15:20:57;2.67;;;0.93;;
20935;SDS011;10627;54.514;18.532;2022-09-21T15:26:08;6.13;;;1.20;;
20935;SDS011;10627;54.514;18.532;2022-09-21T15:31:10;1.80;;;0.90;;
20935;SDS011;10627;54.514;18.532;2022-09-21T15:36:11;6.63;;;0.90;;
20935;SDS011;10627;54.514;18.532;2022-09-21T15:41:17;4.35;;;1.90;;
20935;SDS011;10627;54.514;18.532;2022-09-21T15:46:42;3.33;;;1.30;;
20935;SDS011;10627;54.514;18.532;2022-09-21T15:51:43;4.32;;;1.88;;
20935;SDS011;10627;54.514;18.532;2022-09-21T15:56:48;3.45;;;1.08;;
20935;SDS011;10627;54.514;18.532;2022-09-21T16:01:51;3.85;;;1.65;;
20935;SDS011;10627;54.514;18.532;2022-09-21T16:12:38;3.38;;;1.80;;
20935;SDS011;10627;54.514;18.532;2022-09-21T16:17:51;5.35;;;1.52;;
20935;SDS011;10627;54.514;18.532;2022-09-21T16:23:05;5.43;;;1.77;;
20935;SDS011;10627;54.514;18.532;2022-09-21T16:33:32;8.60;;;1.70;;
20935;SDS011;10627;54.514;18.532;2022-09-21T16:38:39;6.65;;;2.10;;
20935;SDS011;10627;54.514;18.532;2022-09-21T16:43:40;12.90;;;2.13;;
20935;SDS011;10627;54.514;18.532;2022-09-21T16:48:43;5.68;;;2.22;;
20935;SDS011;10627;54.514;18.532;2022-09-21T16:53:44;5.78;;;2.50;;
20935;SDS011;10627;54.514;18.532;2022-09-21T16:58:44;9.38;;;2.40;;
20935;SDS011;10627;54.514;18.532;2022-09-21T17:03:46;6.75;;;2.33;;
20935;SDS011;10627;54.514;18.532;2022-09-21T17:08:47;7.28;;;1.90;;
20935;SDS011;10627;54.514;18.532;2022-09-21T17:13:48;3.37;;;2.40;;
20935;SDS011;10627;54.514;18.532;2022-09-21T17:18:51;7.88;;;2.25;;
20935;SDS011;10627;54.514;18.532;2022-09-21T17:23:52;3.28;;;2.00;;
20935;SDS011;10627;54.514;18.532;2022-09-21T17:28:53;4.22;;;2.00;;
20935;SDS011;10627;54.514;18.532;2022-09-21T17:33:54;6.63;;;3.70;;
20935;SDS011;10627;54.514;18.532;2022-09-21T17:38:56;4.28;;;2.47;;
20935;SDS011;10627;54.514;18.532;2022-09-21T17:44:01;6.90;;;3.75;;
20935;SDS011;10627;54.514;18.532;2022-09-21T17:49:04;5.37;;;2.90;;
20935;SDS011;10627;54.514;18.532;2022-09-21T17:54:05;8.68;;;4.65;;
20935;SDS011;10627;54.514;18.532;2022-09-21T17:59:11;6.03;;;2.80;;
20935;SDS011;10627;54.514;18.532;2022-09-21T18:04:23;5.70;;;3.20;;
20935;SDS011;10627;54.514;18.532;2022-09-21T18:09:27;6.10;;;2.50;;
20935;SDS011;10627;54.514;18.532;2022-09-21T18:24:59;5.70;;;3.17;;
20935;SDS011;10627;54.514;18.532;2022-09-21T18:30:00;5.97;;;3.10;;
20935;SDS011;10627;54.514;18.532;2022-09-21T18:45:43;7.27;;;3.50;;
20935;SDS011;10627;54.514;18.532;2022-09-21T18:56:16;7.50;;;3.67;;
20935;SDS011;10627;54.514;18.532;2022-09-21T19:01:18;8.33;;;3.80;;
20935;SDS011;10627;54.514;18.532;2022-09-21T19:33:01;8.07;;;3.43;;
20935;SDS011;10627;54.514;18.532;2022-09-21T19:38:27;5.13;;;2.63;;
20935;SDS011;10627;54.514;18.532;2022-09-21T19:43:41;9.53;;;3.13;;
20935;SDS011;10627;54.514;18.532;2022-09-21T19:49:15;7.33;;;3.40;;
20935;SDS011;10627;54.514;18.532;2022-09-21T19:54:19;5.50;;;3.00;;
20935;SDS011;10627;54.514;18.532;2022-09-21T19:59:42;5.90;;;2.47;;
20935;SDS011;10627;54.514;18.532;2022-09-21T20:05:06;4.70;;;2.33;;
20935;SDS011;10627;54.514;18.532;2022-09-21T20:10:27;5.53;;;2.17;;
20935;SDS011;10627;54.514;18.532;2022-09-21T20:20:47;5.30;;;2.37;;
20935;SDS011;10627;54.514;18.532;2022-09-21T20:25:59;5.83;;;2.57;;
20935;SDS011;10627;54.514;18.532;2022-09-21T20:31:03;5.43;;;2.00;;
20935;SDS011;10627;54.514;18.532;2022-09-21T20:36:04;5.43;;;2.20;;
20935;SDS011;10627;54.514;18.532;2022-09-21T20:41:08;3.33;;;1.70;;
20935;SDS011;10627;54.514;18.532;2022-09-21T20:46:14;3.00;;;1.60;;
20935;SDS011;10627;54.514;18.532;2022-09-21T20:51:16;5.33;;;2.43;;
20935;SDS011;10627;54.514;18.532;2022-09-21T20:56:17;6.47;;;2.37;;
20935;SDS011;10627;54.514;18.532;2022-09-21T21:01:18;5.57;;;2.50;;
20935;SDS011;10627;54.514;18.532;2022-09-21T21:06:19;4.93;;;2.57;;
20935;SDS011;10627;54.514;18.532;2022-09-21T21:11:20;6.70;;;2.77;;
20935;SDS011;10627;54.514;18.532;2022-09-21T21:16:21;5.37;;;3.40;;
20935;SDS011;10627;54.514;18.532;2022-09-21T21:21:23;4.93;;;2.40;;
20935;SDS011;10627;54.514;18.532;2022-09-21T21:26:26;5.30;;;2.23;;
20935;SDS011;10627;54.514;18.532;2022-09-21T21:31:27;4.47;;;2.10;;
20935;SDS011;10627;54.514;18.532;2022-09-21T21:36:30;3.37;;;1.80;;
20935;SDS011;10627;54.514;18.532;2022-09-21T21:41:31;4.33;;;2.43;;
20935;SDS011;10627;54.514;18.532;2022-09-21T21:46:32;4.23;;;2.13;;
20935;SDS011;10627;54.514;18.532;2022-09-21T21:51:33;3.30;;;1.83;;
20935;SDS011;10627;54.514;18.532;2022-09-21T21:56:34;4.33;;;1.80;;
20935;SDS011;10627;54.514;18.532;2022-09-21T22:01:35;8.30;;;2.00;;
20935;SDS011;10627;54.514;18.532;2022-09-21T22:06:38;4.50;;;1.77;;
20935;SDS011;10627;54.514;18.532;2022-09-21T22:11:39;3.73;;;2.00;;
20935;SDS011;10627;54.514;18.532;2022-09-21T22:16:40;3.83;;;1.70;;
20935;SDS011;10627;54.514;18.532;2022-09-21T22:21:42;3.73;;;1.87;;
20935;SDS011;10627;54.514;18.532;2022-09-21T22:26:47;3.03;;;1.60;;
20935;SDS011;10627;54.514;18.532;2022-09-21T22:31:48;3.33;;;1.67;;
20935;SDS011;10627;54.514;18.532;2022-09-21T22:36:49;3.83;;;1.30;;
20935;SDS011;10627;54.514;18.532;2022-09-21T22:41:50;3.40;;;1.60;;
20935;SDS011;10627;54.514;18.532;2022-09-21T22:46:51;3.23;;;1.60;;
20935;SDS011;10627;54.514;18.532;2022-09-21T22:51:52;4.50;;;1.70;;
20935;SDS011;10627;54.514;18.532;2022-09-21T22:56:53;5.20;;;1.93;;
20935;SDS011;10627;54.514;18.532;2022-09-21T23:01:54;3.57;;;1.63;;
20935;SDS011;10627;54.514;18.532;2022-09-21T23:06:55;7.37;;;1.93;;
20935;SDS011;10627;54.514;18.532;2022-09-21T23:11:56;3.43;;;1.60;;
20935;SDS011;10627;54.514;18.532;2022-09-21T23:16:57;2.83;;;1.20;;
20935;SDS011;10627;54.514;18.532;2022-09-21T23:21:58;2.33;;;1.07;;
20935;SDS011;10627;54.514;18.532;2022-09-21T23:27:00;2.60;;;1.10;;
20935;SDS011;10627;54.514;18.532;2022-09-21T23:32:01;3.10;;;1.00;;
20935;SDS011;10627;54.514;18.532;2022-09-21T23:37:01;3.57;;;1.63;;
20935;SDS011;10627;54.514;18.532;2022-09-21T23:42:03;1.93;;;1.20;;
20935;SDS011;10627;54.514;18.532;2022-09-21T23:47:04;1.27;;;0.90;;
20935;SDS011;10627;54.514;18.532;2022-09-21T23:52:05;3.97;;;1.27;;
20935;SDS011;10627;54.514;18.532;2022-09-21T23:57:08;2.70;;;1.63;;
